sensor_id;sensor_type;location;lat;lon;timestamp;P1;durP1;ratioP1;P2;durP2;ratioP2
6832;SDS011;3454;42.654;23.378;2023-05-10T00:00:16;5.10;;;4.33;;
6832;SDS011;3454;42.654;23.378;2023-05-10T00:02:41;7.17;;;4.90;;
6832;SDS011;3454;42.654;23.378;2023-05-10T00:05:07;5.27;;;4.53;;
6832;SDS011;3454;42.654;23.378;2023-05-10T00:07:32;6.67;;;5.00;;
6832;SDS011;3454;42.654;23.378;2023-05-10T00:09:58;6.13;;;5.23;;
6832;SDS011;3454;42.654;23.378;2023-05-10T00:12:23;5.33;;;4.30;;
6832;SDS011;3454;42.654;23.378;2023-05-10T00:14:48;6.23;;;4.67;;
6832;SDS011;3454;42.654;23.378;2023-05-10T00:17:14;7.23;;;5.03;;
6832;SDS011;3454;42.654;23.378;2023-05-10T00:19:39;5.83;;;5.17;;
6832;SDS011;3454;42.654;23.378;2023-05-10T00:22:05;5.47;;;4.97;;
6832;SDS011;3454;42.654;23.378;2023-05-10T00:24:30;8.67;;;6.47;;
6832;SDS011;3454;42.654;23.378;2023-05-10T00:26:56;7.00;;;5.47;;
6832;SDS011;3454;42.654;23.378;2023-05-10T00:29:21;7.33;;;5.23;;
6832;SDS011;3454;42.654;23.378;2023-05-10T00:31:47;6.10;;;5.47;;
6832;SDS011;3454;42.654;23.378;2023-05-10T00:34:13;7.10;;;5.90;;
6832;SDS011;3454;42.654;23.378;2023-05-10T00:36:38;7.83;;;6.03;;
6832;SDS011;3454;42.654;23.378;2023-05-10T00:39:03;5.90;;;5.37;;
6832;SDS011;3454;42.654;23.378;2023-05-10T00:41:29;7.23;;;6.07;;
6832;SDS011;3454;42.654;23.378;2023-05-10T00:43:57;5.80;;;5.20;;
6832;SDS011;3454;42.654;23.378;2023-05-10T00:46:23;6.87;;;5.43;;
6832;SDS011;3454;42.654;23.378;2023-05-10T00:48:49;7.00;;;5.43;;
6832;SDS011;3454;42.654;23.378;2023-05-10T00:51:15;6.30;;;5.37;;
6832;SDS011;3454;42.654;23.378;2023-05-10T00:53:40;6.43;;;5.33;;
6832;SDS011;3454;42.654;23.378;2023-05-10T00:56:06;6.33;;;5.23;;
6832;SDS011;3454;42.654;23.378;2023-05-10T00:58:31;7.20;;;5.20;;
6832;SDS011;3454;42.654;23.378;2023-05-10T01:00:58;5.93;;;5.30;;
6832;SDS011;3454;42.654;23.378;2023-05-10T01:03:24;5.97;;;5.47;;
6832;SDS011;3454;42.654;23.378;2023-05-10T01:05:50;7.87;;;6.50;;
6832;SDS011;3454;42.654;23.378;2023-05-10T01:08:15;6.73;;;5.73;;
6832;SDS011;3454;42.654;23.378;2023-05-10T01:10:41;6.57;;;5.87;;
6832;SDS011;3454;42.654;23.378;2023-05-10T01:13:07;6.30;;;5.70;;
6832;SDS011;3454;42.654;23.378;2023-05-10T01:15:34;5.33;;;4.83;;
6832;SDS011;3454;42.654;23.378;2023-05-10T01:18:00;5.63;;;4.80;;
6832;SDS011;3454;42.654;23.378;2023-05-10T01:20:27;6.57;;;5.30;;
6832;SDS011;3454;42.654;23.378;2023-05-10T01:23:11;5.43;;;4.90;;
6832;SDS011;3454;42.654;23.378;2023-05-10T01:34:47;6.23;;;4.73;;
6832;SDS011;3454;42.654;23.378;2023-05-10T01:37:04;4.73;;;3.50;;
6832;SDS011;3454;42.654;23.378;2023-05-10T01:42:46;6.10;;;4.73;;
6832;SDS011;3454;42.654;23.378;2023-05-10T01:48:15;5.03;;;4.53;;
6832;SDS011;3454;42.654;23.378;2023-05-10T01:50:43;5.50;;;5.00;;
6832;SDS011;3454;42.654;23.378;2023-05-10T01:53:11;5.80;;;5.20;;
6832;SDS011;3454;42.654;23.378;2023-05-10T01:55:41;5.40;;;3.90;;
6832;SDS011;3454;42.654;23.378;2023-05-10T01:58:15;6.77;;;4.67;;
6832;SDS011;3454;42.654;23.378;2023-05-10T02:00:45;4.23;;;3.80;;
6832;SDS011;3454;42.654;23.378;2023-05-10T02:03:12;3.73;;;3.30;;
6832;SDS011;3454;42.654;23.378;2023-05-10T02:05:39;4.00;;;3.70;;
6832;SDS011;3454;42.654;23.378;2023-05-10T02:08:09;4.70;;;3.70;;
6832;SDS011;3454;42.654;23.378;2023-05-10T02:10:36;3.30;;;3.00;;
6832;SDS011;3454;42.654;23.378;2023-05-10T02:13:03;4.93;;;3.83;;
6832;SDS011;3454;42.654;23.378;2023-05-10T02:15:31;4.87;;;4.20;;
6832;SDS011;3454;42.654;23.378;2023-05-10T02:17:57;5.07;;;4.03;;
6832;SDS011;3454;42.654;23.378;2023-05-10T02:20:25;4.47;;;3.57;;
6832;SDS011;3454;42.654;23.378;2023-05-10T02:22:51;6.83;;;4.07;;
6832;SDS011;3454;42.654;23.378;2023-05-10T02:25:19;5.70;;;4.83;;
6832;SDS011;3454;42.654;23.378;2023-05-10T02:27:47;5.87;;;4.30;;
6832;SDS011;3454;42.654;23.378;2023-05-10T02:30:14;4.60;;;4.03;;
6832;SDS011;3454;42.654;23.378;2023-05-10T02:32:40;5.30;;;3.60;;
6832;SDS011;3454;42.654;23.378;2023-05-10T02:35:07;3.93;;;3.50;;
6832;SDS011;3454;42.654;23.378;2023-05-10T02:37:34;7.03;;;4.23;;
6832;SDS011;3454;42.654;23.378;2023-05-10T02:40:00;6.17;;;4.10;;
6832;SDS011;3454;42.654;23.378;2023-05-10T02:42:28;4.57;;;3.60;;
6832;SDS011;3454;42.654;23.378;2023-05-10T02:45:03;5.57;;;3.77;;
6832;SDS011;3454;42.654;23.378;2023-05-10T02:47:36;5.10;;;3.80;;
6832;SDS011;3454;42.654;23.378;2023-05-10T02:50:01;6.67;;;3.70;;
6832;SDS011;3454;42.654;23.378;2023-05-10T02:52:29;6.03;;;4.07;;
6832;SDS011;3454;42.654;23.378;2023-05-10T02:55:01;5.53;;;3.37;;
6832;SDS011;3454;42.654;23.378;2023-05-10T02:57:32;6.30;;;4.00;;
6832;SDS011;3454;42.654;23.378;2023-05-10T02:59:59;5.23;;;3.30;;
6832;SDS011;3454;42.654;23.378;2023-05-10T03:02:25;4.87;;;3.33;;
6832;SDS011;3454;42.654;23.378;2023-05-10T03:04:51;5.43;;;2.90;;
6832;SDS011;3454;42.654;23.378;2023-05-10T03:07:17;4.00;;;2.87;;
6832;SDS011;3454;42.654;23.378;2023-05-10T03:09:53;3.40;;;2.80;;
6832;SDS011;3454;42.654;23.378;2023-05-10T03:13:29;5.80;;;3.43;;
6832;SDS011;3454;42.654;23.378;2023-05-10T03:20:11;4.83;;;3.83;;
6832;SDS011;3454;42.654;23.378;2023-05-10T03:22:41;7.83;;;4.93;;
6832;SDS011;3454;42.654;23.378;2023-05-10T03:25:16;6.57;;;4.83;;
6832;SDS011;3454;42.654;23.378;2023-05-10T03:27:44;4.50;;;2.90;;
6832;SDS011;3454;42.654;23.378;2023-05-10T03:30:11;4.30;;;3.20;;
6832;SDS011;3454;42.654;23.378;2023-05-10T03:32:38;4.30;;;3.77;;
6832;SDS011;3454;42.654;23.378;2023-05-10T03:35:07;5.30;;;3.93;;
6832;SDS011;3454;42.654;23.378;2023-05-10T03:37:33;9.40;;;4.17;;
6832;SDS011;3454;42.654;23.378;2023-05-10T03:39:59;4.43;;;3.97;;
6832;SDS011;3454;42.654;23.378;2023-05-10T03:42:25;24.67;;;15.70;;
6832;SDS011;3454;42.654;23.378;2023-05-10T03:44:50;21.30;;;13.43;;
6832;SDS011;3454;42.654;23.378;2023-05-10T03:47:16;6.63;;;5.83;;
6832;SDS011;3454;42.654;23.378;2023-05-10T03:49:41;9.47;;;6.53;;
6832;SDS011;3454;42.654;23.378;2023-05-10T03:52:07;10.90;;;7.53;;
6832;SDS011;3454;42.654;23.378;2023-05-10T03:54:32;12.43;;;9.50;;
6832;SDS011;3454;42.654;23.378;2023-05-10T03:56:58;15.37;;;9.83;;
6832;SDS011;3454;42.654;23.378;2023-05-10T03:59:23;7.57;;;5.50;;
6832;SDS011;3454;42.654;23.378;2023-05-10T04:01:48;7.27;;;4.03;;
6832;SDS011;3454;42.654;23.378;2023-05-10T04:04:14;5.77;;;3.50;;
6832;SDS011;3454;42.654;23.378;2023-05-10T04:06:39;5.63;;;4.07;;
6832;SDS011;3454;42.654;23.378;2023-05-10T04:09:04;5.50;;;4.00;;
6832;SDS011;3454;42.654;23.378;2023-05-10T04:11:30;8.23;;;3.70;;
6832;SDS011;3454;42.654;23.378;2023-05-10T04:13:55;8.00;;;4.60;;
6832;SDS011;3454;42.654;23.378;2023-05-10T04:16:21;5.17;;;4.00;;
6832;SDS011;3454;42.654;23.378;2023-05-10T04:18:46;6.47;;;4.40;;
6832;SDS011;3454;42.654;23.378;2023-05-10T04:21:13;6.13;;;3.77;;
6832;SDS011;3454;42.654;23.378;2023-05-10T04:23:39;6.30;;;4.00;;
6832;SDS011;3454;42.654;23.378;2023-05-10T04:26:05;6.43;;;4.23;;
6832;SDS011;3454;42.654;23.378;2023-05-10T04:28:31;5.33;;;4.10;;
6832;SDS011;3454;42.654;23.378;2023-05-10T04:31:03;4.53;;;3.67;;
6832;SDS011;3454;42.654;23.378;2023-05-10T04:33:30;6.13;;;3.83;;
6832;SDS011;3454;42.654;23.378;2023-05-10T04:35:56;4.17;;;3.80;;
6832;SDS011;3454;42.654;23.378;2023-05-10T04:38:21;5.83;;;4.80;;
6832;SDS011;3454;42.654;23.378;2023-05-10T04:40:47;6.93;;;4.50;;
6832;SDS011;3454;42.654;23.378;2023-05-10T04:43:12;5.00;;;3.83;;
6832;SDS011;3454;42.654;23.378;2023-05-10T04:45:38;4.10;;;3.67;;
6832;SDS011;3454;42.654;23.378;2023-05-10T04:48:03;4.17;;;3.80;;
6832;SDS011;3454;42.654;23.378;2023-05-10T04:50:29;5.53;;;4.10;;
6832;SDS011;3454;42.654;23.378;2023-05-10T04:52:55;4.70;;;3.53;;
6832;SDS011;3454;42.654;23.378;2023-05-10T04:55:20;5.47;;;4.33;;
6832;SDS011;3454;42.654;23.378;2023-05-10T04:57:46;5.20;;;4.20;;
6832;SDS011;3454;42.654;23.378;2023-05-10T05:00:11;4.27;;;3.70;;
6832;SDS011;3454;42.654;23.378;2023-05-10T05:02:37;6.27;;;4.70;;
6832;SDS011;3454;42.654;23.378;2023-05-10T05:05:03;8.17;;;4.73;;
6832;SDS011;3454;42.654;23.378;2023-05-10T05:07:28;6.63;;;4.33;;
6832;SDS011;3454;42.654;23.378;2023-05-10T05:09:55;5.73;;;4.13;;
6832;SDS011;3454;42.654;23.378;2023-05-10T05:12:21;8.27;;;4.50;;
6832;SDS011;3454;42.654;23.378;2023-05-10T05:14:46;8.17;;;4.50;;
6832;SDS011;3454;42.654;23.378;2023-05-10T05:17:12;5.73;;;4.20;;
6832;SDS011;3454;42.654;23.378;2023-05-10T05:19:38;5.80;;;4.53;;
6832;SDS011;3454;42.654;23.378;2023-05-10T05:22:03;7.10;;;5.33;;
6832;SDS011;3454;42.654;23.378;2023-05-10T05:24:34;6.87;;;4.80;;
6832;SDS011;3454;42.654;23.378;2023-05-10T05:27:00;6.50;;;4.33;;
6832;SDS011;3454;42.654;23.378;2023-05-10T05:29:26;6.17;;;5.23;;
6832;SDS011;3454;42.654;23.378;2023-05-10T05:31:51;8.07;;;5.33;;
6832;SDS011;3454;42.654;23.378;2023-05-10T05:34:17;6.00;;;4.70;;
6832;SDS011;3454;42.654;23.378;2023-05-10T05:36:42;7.90;;;5.40;;
6832;SDS011;3454;42.654;23.378;2023-05-10T05:39:07;7.33;;;5.87;;
6832;SDS011;3454;42.654;23.378;2023-05-10T05:41:33;6.63;;;5.30;;
6832;SDS011;3454;42.654;23.378;2023-05-10T05:43:58;7.87;;;5.47;;
6832;SDS011;3454;42.654;23.378;2023-05-10T05:46:24;7.80;;;5.40;;
6832;SDS011;3454;42.654;23.378;2023-05-10T05:48:49;7.37;;;5.60;;
6832;SDS011;3454;42.654;23.378;2023-05-10T05:51:14;6.70;;;5.63;;
6832;SDS011;3454;42.654;23.378;2023-05-10T05:53:40;9.80;;;6.07;;
6832;SDS011;3454;42.654;23.378;2023-05-10T05:56:05;7.90;;;5.87;;
6832;SDS011;3454;42.654;23.378;2023-05-10T05:58:31;8.23;;;6.17;;
6832;SDS011;3454;42.654;23.378;2023-05-10T06:00:56;13.20;;;6.63;;
6832;SDS011;3454;42.654;23.378;2023-05-10T06:03:22;9.57;;;6.03;;
6832;SDS011;3454;42.654;23.378;2023-05-10T06:05:47;10.90;;;6.37;;
6832;SDS011;3454;42.654;23.378;2023-05-10T06:08:13;12.50;;;7.50;;
6832;SDS011;3454;42.654;23.378;2023-05-10T06:10:38;6.97;;;5.23;;
6832;SDS011;3454;42.654;23.378;2023-05-10T06:13:04;8.90;;;5.50;;
6832;SDS011;3454;42.654;23.378;2023-05-10T06:15:29;8.33;;;5.90;;
6832;SDS011;3454;42.654;23.378;2023-05-10T06:17:55;6.77;;;5.53;;
6832;SDS011;3454;42.654;23.378;2023-05-10T06:20:20;11.07;;;5.87;;
6832;SDS011;3454;42.654;23.378;2023-05-10T06:22:46;6.57;;;5.47;;
6832;SDS011;3454;42.654;23.378;2023-05-10T06:25:11;8.10;;;5.83;;
6832;SDS011;3454;42.654;23.378;2023-05-10T06:27:37;12.43;;;5.73;;
6832;SDS011;3454;42.654;23.378;2023-05-10T06:30:02;7.50;;;5.03;;
6832;SDS011;3454;42.654;23.378;2023-05-10T06:32:29;7.70;;;5.20;;
6832;SDS011;3454;42.654;23.378;2023-05-10T06:34:55;7.50;;;5.67;;
6832;SDS011;3454;42.654;23.378;2023-05-10T06:37:20;8.13;;;5.53;;
6832;SDS011;3454;42.654;23.378;2023-05-10T06:39:46;8.30;;;6.13;;
6832;SDS011;3454;42.654;23.378;2023-05-10T06:42:11;6.93;;;5.37;;
6832;SDS011;3454;42.654;23.378;2023-05-10T06:44:36;10.27;;;6.30;;
6832;SDS011;3454;42.654;23.378;2023-05-10T06:47:08;8.53;;;6.00;;
6832;SDS011;3454;42.654;23.378;2023-05-10T06:49:34;6.23;;;5.23;;
6832;SDS011;3454;42.654;23.378;2023-05-10T06:51:59;11.20;;;5.43;;
6832;SDS011;3454;42.654;23.378;2023-05-10T06:54:25;6.23;;;4.73;;
6832;SDS011;3454;42.654;23.378;2023-05-10T06:56:51;8.40;;;4.83;;
6832;SDS011;3454;42.654;23.378;2023-05-10T06:59:16;11.83;;;5.13;;
6832;SDS011;3454;42.654;23.378;2023-05-10T07:01:44;8.20;;;6.13;;
6832;SDS011;3454;42.654;23.378;2023-05-10T07:04:09;8.10;;;6.07;;
6832;SDS011;3454;42.654;23.378;2023-05-10T07:06:35;8.63;;;5.87;;
6832;SDS011;3454;42.654;23.378;2023-05-10T07:09:01;10.00;;;6.00;;
6832;SDS011;3454;42.654;23.378;2023-05-10T07:11:27;7.97;;;5.70;;
6832;SDS011;3454;42.654;23.378;2023-05-10T07:13:53;11.37;;;5.50;;
6832;SDS011;3454;42.654;23.378;2023-05-10T07:16:18;8.00;;;5.10;;
6832;SDS011;3454;42.654;23.378;2023-05-10T07:18:44;10.83;;;6.47;;
6832;SDS011;3454;42.654;23.378;2023-05-10T07:21:09;10.43;;;6.40;;
6832;SDS011;3454;42.654;23.378;2023-05-10T07:23:35;10.13;;;5.37;;
6832;SDS011;3454;42.654;23.378;2023-05-10T07:26:01;8.57;;;6.30;;
6832;SDS011;3454;42.654;23.378;2023-05-10T07:28:27;12.53;;;5.87;;
6832;SDS011;3454;42.654;23.378;2023-05-10T07:30:52;9.13;;;6.30;;
6832;SDS011;3454;42.654;23.378;2023-05-10T07:33:18;7.67;;;5.90;;
6832;SDS011;3454;42.654;23.378;2023-05-10T07:35:43;8.07;;;6.23;;
6832;SDS011;3454;42.654;23.378;2023-05-10T07:38:09;10.87;;;7.60;;
6832;SDS011;3454;42.654;23.378;2023-05-10T07:40:36;10.73;;;7.93;;
6832;SDS011;3454;42.654;23.378;2023-05-10T07:43:01;9.60;;;7.30;;
6832;SDS011;3454;42.654;23.378;2023-05-10T07:45:27;10.07;;;7.07;;
6832;SDS011;3454;42.654;23.378;2023-05-10T07:47:53;14.13;;;7.30;;
6832;SDS011;3454;42.654;23.378;2023-05-10T07:50:19;12.40;;;7.87;;
6832;SDS011;3454;42.654;23.378;2023-05-10T07:52:46;9.93;;;7.40;;
6832;SDS011;3454;42.654;23.378;2023-05-10T07:55:11;9.50;;;7.43;;
6832;SDS011;3454;42.654;23.378;2023-05-10T07:57:37;12.30;;;7.93;;
6832;SDS011;3454;42.654;23.378;2023-05-10T08:00:02;12.53;;;8.03;;
6832;SDS011;3454;42.654;23.378;2023-05-10T08:02:28;13.43;;;8.07;;
6832;SDS011;3454;42.654;23.378;2023-05-10T08:04:54;8.90;;;6.97;;
6832;SDS011;3454;42.654;23.378;2023-05-10T08:07:20;8.83;;;6.30;;
6832;SDS011;3454;42.654;23.378;2023-05-10T08:09:46;9.37;;;7.53;;
6832;SDS011;3454;42.654;23.378;2023-05-10T08:12:12;9.60;;;7.67;;
6832;SDS011;3454;42.654;23.378;2023-05-10T08:14:37;8.67;;;5.77;;
6832;SDS011;3454;42.654;23.378;2023-05-10T08:17:03;10.53;;;7.47;;
6832;SDS011;3454;42.654;23.378;2023-05-10T08:19:29;7.73;;;6.93;;
6832;SDS011;3454;42.654;23.378;2023-05-10T08:21:54;10.03;;;7.37;;
6832;SDS011;3454;42.654;23.378;2023-05-10T08:24:20;10.50;;;6.93;;
6832;SDS011;3454;42.654;23.378;2023-05-10T08:26:46;8.27;;;6.50;;
6832;SDS011;3454;42.654;23.378;2023-05-10T08:29:12;9.73;;;7.13;;
6832;SDS011;3454;42.654;23.378;2023-05-10T08:31:39;10.33;;;6.97;;
6832;SDS011;3454;42.654;23.378;2023-05-10T08:34:04;11.40;;;7.43;;
6832;SDS011;3454;42.654;23.378;2023-05-10T08:36:30;9.67;;;6.50;;
6832;SDS011;3454;42.654;23.378;2023-05-10T08:38:57;8.63;;;7.33;;
6832;SDS011;3454;42.654;23.378;2023-05-10T08:44:08;10.23;;;6.80;;
6832;SDS011;3454;42.654;23.378;2023-05-10T08:46:34;8.30;;;6.53;;
6832;SDS011;3454;42.654;23.378;2023-05-10T08:49:03;9.30;;;7.10;;
6832;SDS011;3454;42.654;23.378;2023-05-10T08:51:30;8.43;;;7.17;;
6832;SDS011;3454;42.654;23.378;2023-05-10T08:54:00;7.83;;;6.53;;
6832;SDS011;3454;42.654;23.378;2023-05-10T08:56:26;11.77;;;7.20;;
6832;SDS011;3454;42.654;23.378;2023-05-10T08:58:52;9.17;;;7.47;;
6832;SDS011;3454;42.654;23.378;2023-05-10T09:01:18;11.87;;;8.07;;
6832;SDS011;3454;42.654;23.378;2023-05-10T09:03:45;11.53;;;7.57;;
6832;SDS011;3454;42.654;23.378;2023-05-10T09:06:12;14.53;;;8.97;;
6832;SDS011;3454;42.654;23.378;2023-05-10T09:08:38;12.67;;;8.50;;
6832;SDS011;3454;42.654;23.378;2023-05-10T09:11:05;12.93;;;8.17;;
6832;SDS011;3454;42.654;23.378;2023-05-10T09:13:30;9.47;;;8.20;;
6832;SDS011;3454;42.654;23.378;2023-05-10T09:15:56;10.30;;;7.07;;
6832;SDS011;3454;42.654;23.378;2023-05-10T09:18:23;12.57;;;8.17;;
6832;SDS011;3454;42.654;23.378;2023-05-10T09:20:48;9.67;;;7.50;;
6832;SDS011;3454;42.654;23.378;2023-05-10T09:23:14;9.40;;;7.17;;
6832;SDS011;3454;42.654;23.378;2023-05-10T09:25:41;10.43;;;7.33;;
6832;SDS011;3454;42.654;23.378;2023-05-10T09:28:07;10.73;;;8.10;;
6832;SDS011;3454;42.654;23.378;2023-05-10T09:30:34;9.70;;;7.37;;
6832;SDS011;3454;42.654;23.378;2023-05-10T09:33:00;12.63;;;8.17;;
6832;SDS011;3454;42.654;23.378;2023-05-10T09:35:27;12.07;;;6.90;;
6832;SDS011;3454;42.654;23.378;2023-05-10T09:37:55;9.90;;;8.27;;
6832;SDS011;3454;42.654;23.378;2023-05-10T09:40:25;9.77;;;7.10;;
6832;SDS011;3454;42.654;23.378;2023-05-10T09:42:55;8.50;;;6.93;;
6832;SDS011;3454;42.654;23.378;2023-05-10T09:45:47;9.33;;;6.17;;
6832;SDS011;3454;42.654;23.378;2023-05-10T09:48:16;8.83;;;7.57;;
6832;SDS011;3454;42.654;23.378;2023-05-10T09:50:42;9.87;;;6.60;;
6832;SDS011;3454;42.654;23.378;2023-05-10T09:53:08;8.43;;;7.53;;
6832;SDS011;3454;42.654;23.378;2023-05-10T09:55:40;11.77;;;7.87;;
6832;SDS011;3454;42.654;23.378;2023-05-10T09:58:06;7.67;;;6.57;;
6832;SDS011;3454;42.654;23.378;2023-05-10T10:00:45;7.00;;;5.93;;
6832;SDS011;3454;42.654;23.378;2023-05-10T10:03:21;8.77;;;7.00;;
6832;SDS011;3454;42.654;23.378;2023-05-10T10:05:48;11.97;;;9.23;;
6832;SDS011;3454;42.654;23.378;2023-05-10T10:08:14;9.97;;;7.60;;
6832;SDS011;3454;42.654;23.378;2023-05-10T10:10:41;15.93;;;9.10;;
6832;SDS011;3454;42.654;23.378;2023-05-10T10:13:09;9.97;;;6.73;;
6832;SDS011;3454;42.654;23.378;2023-05-10T10:15:35;21.77;;;10.33;;
6832;SDS011;3454;42.654;23.378;2023-05-10T10:18:01;14.27;;;10.33;;
6832;SDS011;3454;42.654;23.378;2023-05-10T10:20:28;17.13;;;10.67;;
6832;SDS011;3454;42.654;23.378;2023-05-10T10:22:54;9.23;;;7.23;;
6832;SDS011;3454;42.654;23.378;2023-05-10T10:25:20;9.20;;;7.20;;
6832;SDS011;3454;42.654;23.378;2023-05-10T10:27:56;8.20;;;5.93;;
6832;SDS011;3454;42.654;23.378;2023-05-10T10:30:45;9.77;;;5.80;;
6832;SDS011;3454;42.654;23.378;2023-05-10T10:36:17;9.17;;;6.90;;
6832;SDS011;3454;42.654;23.378;2023-05-10T10:52:27;7.53;;;5.83;;
6832;SDS011;3454;42.654;23.378;2023-05-10T10:55:05;6.27;;;5.00;;
6832;SDS011;3454;42.654;23.378;2023-05-10T10:57:32;5.30;;;4.77;;
6832;SDS011;3454;42.654;23.378;2023-05-10T11:02:46;8.00;;;4.93;;
6832;SDS011;3454;42.654;23.378;2023-05-10T11:05:23;6.47;;;4.83;;
6832;SDS011;3454;42.654;23.378;2023-05-10T11:07:58;8.23;;;4.40;;
6832;SDS011;3454;42.654;23.378;2023-05-10T11:10:25;6.93;;;5.43;;
6832;SDS011;3454;42.654;23.378;2023-05-10T11:13:04;7.90;;;5.27;;
6832;SDS011;3454;42.654;23.378;2023-05-10T11:15:31;8.70;;;5.10;;
6832;SDS011;3454;42.654;23.378;2023-05-10T11:18:16;6.80;;;5.20;;
6832;SDS011;3454;42.654;23.378;2023-05-10T11:20:43;7.53;;;5.37;;
6832;SDS011;3454;42.654;23.378;2023-05-10T11:23:12;8.63;;;4.67;;
6832;SDS011;3454;42.654;23.378;2023-05-10T11:25:43;9.13;;;5.17;;
6832;SDS011;3454;42.654;23.378;2023-05-10T11:28:10;9.73;;;4.97;;
6832;SDS011;3454;42.654;23.378;2023-05-10T11:30:40;7.20;;;5.80;;
6832;SDS011;3454;42.654;23.378;2023-05-10T11:33:08;8.80;;;5.90;;
6832;SDS011;3454;42.654;23.378;2023-05-10T11:35:40;7.30;;;5.63;;
6832;SDS011;3454;42.654;23.378;2023-05-10T11:38:12;9.33;;;5.73;;
6832;SDS011;3454;42.654;23.378;2023-05-10T11:40:41;10.17;;;5.40;;
6832;SDS011;3454;42.654;23.378;2023-05-10T11:43:08;8.83;;;5.73;;
6832;SDS011;3454;42.654;23.378;2023-05-10T11:45:34;7.00;;;5.50;;
6832;SDS011;3454;42.654;23.378;2023-05-10T11:48:01;7.53;;;5.47;;
6832;SDS011;3454;42.654;23.378;2023-05-10T11:50:28;8.83;;;6.17;;
6832;SDS011;3454;42.654;23.378;2023-05-10T11:52:54;9.27;;;5.67;;
6832;SDS011;3454;42.654;23.378;2023-05-10T11:55:21;8.63;;;5.70;;
6832;SDS011;3454;42.654;23.378;2023-05-10T11:57:46;9.60;;;5.57;;
6832;SDS011;3454;42.654;23.378;2023-05-10T12:00:13;5.80;;;4.83;;
6832;SDS011;3454;42.654;23.378;2023-05-10T12:02:39;7.43;;;5.80;;
6832;SDS011;3454;42.654;23.378;2023-05-10T12:05:05;7.20;;;5.70;;
6832;SDS011;3454;42.654;23.378;2023-05-10T12:07:31;9.23;;;6.40;;
6832;SDS011;3454;42.654;23.378;2023-05-10T12:10:07;11.80;;;6.53;;
6832;SDS011;3454;42.654;23.378;2023-05-10T12:12:43;11.40;;;5.70;;
6832;SDS011;3454;42.654;23.378;2023-05-10T12:15:21;10.17;;;6.13;;
6832;SDS011;3454;42.654;23.378;2023-05-10T12:17:48;10.70;;;7.13;;
6832;SDS011;3454;42.654;23.378;2023-05-10T12:20:19;8.07;;;6.23;;
6832;SDS011;3454;42.654;23.378;2023-05-10T12:22:53;9.17;;;5.03;;
6832;SDS011;3454;42.654;23.378;2023-05-10T12:25:30;8.30;;;6.50;;
6832;SDS011;3454;42.654;23.378;2023-05-10T12:27:58;7.57;;;5.53;;
6832;SDS011;3454;42.654;23.378;2023-05-10T12:30:30;8.97;;;5.63;;
6832;SDS011;3454;42.654;23.378;2023-05-10T12:33:01;9.23;;;5.73;;
6832;SDS011;3454;42.654;23.378;2023-05-10T12:35:31;11.03;;;6.17;;
6832;SDS011;3454;42.654;23.378;2023-05-10T12:37:57;6.90;;;6.03;;
6832;SDS011;3454;42.654;23.378;2023-05-10T12:40:23;10.83;;;6.50;;
6832;SDS011;3454;42.654;23.378;2023-05-10T12:42:49;10.43;;;6.17;;
6832;SDS011;3454;42.654;23.378;2023-05-10T12:45:15;7.87;;;5.50;;
6832;SDS011;3454;42.654;23.378;2023-05-10T12:47:42;9.87;;;5.60;;
6832;SDS011;3454;42.654;23.378;2023-05-10T12:50:08;6.80;;;4.97;;
6832;SDS011;3454;42.654;23.378;2023-05-10T12:52:33;8.20;;;5.53;;
6832;SDS011;3454;42.654;23.378;2023-05-10T12:54:59;10.47;;;5.30;;
6832;SDS011;3454;42.654;23.378;2023-05-10T12:57:25;8.17;;;4.80;;
6832;SDS011;3454;42.654;23.378;2023-05-10T12:59:50;9.37;;;5.47;;
6832;SDS011;3454;42.654;23.378;2023-05-10T13:02:16;10.57;;;5.27;;
6832;SDS011;3454;42.654;23.378;2023-05-10T13:04:45;6.37;;;5.67;;
6832;SDS011;3454;42.654;23.378;2023-05-10T13:07:11;7.77;;;5.77;;
6832;SDS011;3454;42.654;23.378;2023-05-10T13:09:36;11.00;;;5.57;;
6832;SDS011;3454;42.654;23.378;2023-05-10T13:12:02;7.67;;;5.47;;
6832;SDS011;3454;42.654;23.378;2023-05-10T13:14:28;6.87;;;5.70;;
6832;SDS011;3454;42.654;23.378;2023-05-10T13:16:55;6.93;;;4.97;;
6832;SDS011;3454;42.654;23.378;2023-05-10T13:19:20;8.00;;;4.60;;
6832;SDS011;3454;42.654;23.378;2023-05-10T13:21:46;6.43;;;4.90;;
6832;SDS011;3454;42.654;23.378;2023-05-10T13:24:11;10.87;;;5.00;;
6832;SDS011;3454;42.654;23.378;2023-05-10T13:26:41;6.67;;;5.13;;
6832;SDS011;3454;42.654;23.378;2023-05-10T13:29:07;6.87;;;5.53;;
6832;SDS011;3454;42.654;23.378;2023-05-10T13:31:33;9.80;;;5.63;;
6832;SDS011;3454;42.654;23.378;2023-05-10T13:33:59;8.43;;;5.20;;
6832;SDS011;3454;42.654;23.378;2023-05-10T13:36:25;8.47;;;5.47;;
6832;SDS011;3454;42.654;23.378;2023-05-10T13:38:50;10.33;;;5.53;;
6832;SDS011;3454;42.654;23.378;2023-05-10T13:41:16;6.37;;;4.80;;
6832;SDS011;3454;42.654;23.378;2023-05-10T13:43:41;6.70;;;4.80;;
6832;SDS011;3454;42.654;23.378;2023-05-10T13:46:06;5.87;;;5.23;;
6832;SDS011;3454;42.654;23.378;2023-05-10T13:48:32;9.20;;;4.97;;
6832;SDS011;3454;42.654;23.378;2023-05-10T13:50:57;6.47;;;4.20;;
6832;SDS011;3454;42.654;23.378;2023-05-10T13:53:23;6.37;;;4.27;;
6832;SDS011;3454;42.654;23.378;2023-05-10T13:59:03;12.37;;;4.83;;
6832;SDS011;3454;42.654;23.378;2023-05-10T14:01:28;7.23;;;4.90;;
6832;SDS011;3454;42.654;23.378;2023-05-10T14:03:54;6.10;;;5.27;;
6832;SDS011;3454;42.654;23.378;2023-05-10T14:06:19;8.23;;;5.17;;
6832;SDS011;3454;42.654;23.378;2023-05-10T14:08:45;5.37;;;4.77;;
6832;SDS011;3454;42.654;23.378;2023-05-10T14:11:11;7.83;;;5.27;;
6832;SDS011;3454;42.654;23.378;2023-05-10T14:13:36;8.80;;;5.70;;
6832;SDS011;3454;42.654;23.378;2023-05-10T14:16:02;8.83;;;5.20;;
6832;SDS011;3454;42.654;23.378;2023-05-10T14:18:27;7.53;;;5.43;;
6832;SDS011;3454;42.654;23.378;2023-05-10T14:20:53;9.10;;;5.33;;
6832;SDS011;3454;42.654;23.378;2023-05-10T14:23:18;7.23;;;5.13;;
6832;SDS011;3454;42.654;23.378;2023-05-10T14:25:49;6.73;;;4.73;;
6832;SDS011;3454;42.654;23.378;2023-05-10T14:28:17;7.67;;;5.17;;
6832;SDS011;3454;42.654;23.378;2023-05-10T14:30:43;7.23;;;5.27;;
6832;SDS011;3454;42.654;23.378;2023-05-10T14:33:09;8.70;;;6.57;;
6832;SDS011;3454;42.654;23.378;2023-05-10T14:35:35;8.87;;;5.90;;
6832;SDS011;3454;42.654;23.378;2023-05-10T14:38:01;9.20;;;6.67;;
6832;SDS011;3454;42.654;23.378;2023-05-10T14:40:28;14.20;;;5.63;;
6832;SDS011;3454;42.654;23.378;2023-05-10T14:42:54;8.30;;;5.67;;
6832;SDS011;3454;42.654;23.378;2023-05-10T14:45:21;9.17;;;6.00;;
6832;SDS011;3454;42.654;23.378;2023-05-10T14:47:47;8.67;;;5.73;;
6832;SDS011;3454;42.654;23.378;2023-05-10T14:50:13;11.33;;;6.33;;
6832;SDS011;3454;42.654;23.378;2023-05-10T14:56:00;7.00;;;5.40;;
6832;SDS011;3454;42.654;23.378;2023-05-10T14:58:26;9.27;;;5.10;;
6832;SDS011;3454;42.654;23.378;2023-05-10T15:00:52;6.33;;;5.60;;
6832;SDS011;3454;42.654;23.378;2023-05-10T15:03:17;11.53;;;5.80;;
6832;SDS011;3454;42.654;23.378;2023-05-10T15:05:43;7.00;;;5.67;;
6832;SDS011;3454;42.654;23.378;2023-05-10T15:08:08;6.90;;;5.17;;
6832;SDS011;3454;42.654;23.378;2023-05-10T15:10:34;7.73;;;5.77;;
6832;SDS011;3454;42.654;23.378;2023-05-10T15:13:00;9.10;;;5.40;;
6832;SDS011;3454;42.654;23.378;2023-05-10T15:15:26;10.23;;;6.10;;
6832;SDS011;3454;42.654;23.378;2023-05-10T15:17:51;6.37;;;5.03;;
6832;SDS011;3454;42.654;23.378;2023-05-10T15:20:17;7.63;;;5.10;;
6832;SDS011;3454;42.654;23.378;2023-05-10T15:22:42;6.73;;;5.47;;
6832;SDS011;3454;42.654;23.378;2023-05-10T15:25:08;7.50;;;4.67;;
6832;SDS011;3454;42.654;23.378;2023-05-10T15:27:34;11.40;;;5.40;;
6832;SDS011;3454;42.654;23.378;2023-05-10T15:30:00;5.50;;;4.77;;
6832;SDS011;3454;42.654;23.378;2023-05-10T15:32:26;6.77;;;5.03;;
6832;SDS011;3454;42.654;23.378;2023-05-10T15:34:51;6.17;;;5.23;;
6832;SDS011;3454;42.654;23.378;2023-05-10T15:37:17;7.73;;;5.20;;
6832;SDS011;3454;42.654;23.378;2023-05-10T15:39:42;5.37;;;4.70;;
6832;SDS011;3454;42.654;23.378;2023-05-10T15:42:09;7.80;;;4.90;;
6832;SDS011;3454;42.654;23.378;2023-05-10T15:44:35;8.67;;;5.63;;